createdAt,value
2023-04-07T00:00:44.725Z,5.55
2023-04-07T00:02:46.999Z,5.32
2023-04-07T00:04:48.660Z,5.45
2023-04-07T00:06:50.305Z,5.64
2023-04-07T00:08:51.860Z,5.69
2023-04-07T00:10:53.431Z,5.57
2023-04-07T00:12:55.084Z,5.47
2023-04-07T00:14:56.682Z,5.54
2023-04-07T00:16:58.182Z,5.56
2023-04-07T00:18:59.651Z,5.35
2023-04-07T00:21:01.145Z,5.33
2023-04-07T00:23:02.782Z,5.52
2023-04-07T00:25:04.684Z,5.58
2023-04-07T00:27:06.262Z,5.53
2023-04-07T00:29:07.803Z,5.51
2023-04-07T00:31:09.449Z,5.36
2023-04-07T00:33:11.213Z,5.44
2023-04-07T00:35:12.746Z,5.71
2023-04-07T00:37:14.349Z,5.43
2023-04-07T00:39:15.803Z,5.25
2023-04-07T00:41:17.650Z,5.43
2023-04-07T00:43:19.652Z,5.64
2023-04-07T00:45:21.265Z,5.73
2023-04-07T00:47:22.843Z,5.79
2023-04-07T00:49:24.644Z,5.94
2023-04-07T00:51:26.948Z,5.97
2023-04-07T00:53:29.146Z,5.98
2023-04-07T00:55:30.995Z,5.98
2023-04-07T00:57:32.626Z,5.68
2023-04-07T00:59:34.654Z,5.72
2023-04-07T01:01:47.245Z,5.90
2023-04-07T01:03:57.687Z,5.54
2023-04-07T01:06:03.243Z,5.55
2023-04-07T01:08:20.767Z,5.17
2023-04-07T01:10:33.877Z,5.14
2023-04-07T01:13:23.902Z,5.32
2023-04-07T01:15:30.739Z,5.31
2023-04-07T01:17:36.388Z,5.39
2023-04-07T01:19:43.171Z,5.59
2023-04-07T01:21:49.384Z,5.50
2023-04-07T01:24:12.969Z,5.54
2023-04-07T01:26:21.906Z,5.54
2023-04-07T01:28:56.191Z,5.35
2023-04-07T01:30:59.885Z,5.31
2023-04-07T01:33:02.232Z,5.30
2023-04-07T01:35:06.364Z,5.45
2023-04-07T01:37:09.688Z,5.65
2023-04-07T01:39:13.149Z,5.68
2023-04-07T01:41:16.484Z,5.65
2023-04-07T01:43:18.549Z,5.67
2023-04-07T01:45:20.613Z,5.64
2023-04-07T01:47:23.434Z,5.62
2023-04-07T01:49:27.233Z,5.55
2023-04-07T01:51:31.036Z,5.54
2023-04-07T01:53:33.163Z,5.26
2023-04-07T01:55:35.226Z,5.33
2023-04-07T01:57:40.488Z,5.52
2023-04-07T01:59:48.119Z,5.16
2023-04-07T02:01:50.515Z,5.30
2023-04-07T02:04:20.128Z,5.35
2023-04-07T02:06:32.051Z,5.35
2023-04-07T02:08:36.892Z,5.27
2023-04-07T02:10:38.986Z,5.09
2023-04-07T02:12:42.573Z,5.17
2023-04-07T02:14:50.549Z,5.10
2023-04-07T02:16:53.705Z,5.00
2023-04-07T02:18:56.253Z,5.04
2023-04-07T02:20:59.278Z,4.91
2023-04-07T02:23:00.802Z,5.07
2023-04-07T02:25:02.388Z,5.23
2023-04-07T02:27:04.215Z,5.22
2023-04-07T02:29:06.116Z,5.06
2023-04-07T02:31:07.632Z,4.95
2023-04-07T02:33:09.204Z,5.02
2023-04-07T02:35:11.942Z,4.87
2023-04-07T02:37:13.400Z,5.00
2023-04-07T02:39:15.021Z,5.19
2023-04-07T02:41:16.642Z,5.23
2023-04-07T02:43:20.686Z,4.97
2023-04-07T02:45:22.345Z,5.13
2023-04-07T02:47:24.080Z,5.08
2023-04-07T02:49:25.617Z,4.98
2023-04-07T02:51:27.172Z,4.87
2023-04-07T02:53:28.759Z,5.01
2023-04-07T02:55:30.482Z,5.22
2023-04-07T02:57:31.981Z,5.08
2023-04-07T02:59:36.985Z,5.12
2023-04-07T03:01:40.335Z,5.18
2023-04-07T03:03:44.757Z,5.24
2023-04-07T03:05:50.907Z,5.27
2023-04-07T03:07:52.479Z,5.24
2023-04-07T03:09:53.999Z,5.17
2023-04-07T03:11:55.699Z,5.09
2023-04-07T03:13:57.612Z,5.10
2023-04-07T03:16:00.560Z,4.74
2023-04-07T03:18:07.596Z,4.64
2023-04-07T03:20:09.884Z,4.87
2023-04-07T03:22:12.655Z,4.90
2023-04-07T03:24:22.245Z,4.81
2023-04-07T03:26:23.779Z,4.66
2023-04-07T03:28:25.768Z,4.80
2023-04-07T03:30:27.428Z,4.86
2023-04-07T03:32:28.947Z,4.88
2023-04-07T03:34:31.453Z,5.01
2023-04-07T03:36:33.945Z,4.91
2023-04-07T03:38:38.774Z,4.95
2023-04-07T03:40:40.345Z,4.75
2023-04-07T03:42:41.893Z,4.52
2023-04-07T03:44:46.185Z,4.45
2023-04-07T03:46:50.435Z,4.72
2023-04-07T03:48:53.679Z,4.70
2023-04-07T03:50:56.641Z,4.69
2023-04-07T03:52:58.363Z,4.72
2023-04-07T03:55:03.340Z,4.85
2023-04-07T03:57:06.928Z,4.87
2023-04-07T03:59:13.243Z,4.80
2023-04-07T04:01:26.336Z,4.71
2023-04-07T04:03:29.349Z,4.76
2023-04-07T04:05:46.295Z,4.82
2023-04-07T04:07:53.146Z,4.94
2023-04-07T04:09:56.855Z,4.91
2023-04-07T04:11:58.639Z,4.74
2023-04-07T04:14:00.803Z,4.64
2023-04-07T04:16:02.973Z,4.75
2023-04-07T04:18:05.061Z,4.94
2023-04-07T04:20:08.152Z,4.95
2023-04-07T04:22:17.708Z,5.03
2023-04-07T04:24:26.145Z,5.08
2023-04-07T04:26:29.765Z,5.20
2023-04-07T04:28:36.761Z,5.03
2023-04-07T04:30:41.895Z,4.99
2023-04-07T04:32:44.542Z,4.71
2023-04-07T04:34:47.088Z,4.85
2023-04-07T04:36:50.557Z,4.73
2023-04-07T04:38:53.851Z,4.79
2023-04-07T04:40:56.508Z,4.92
2023-04-07T04:43:06.998Z,4.91
2023-04-07T04:45:11.065Z,4.58
2023-04-07T04:47:15.899Z,4.41
2023-04-07T04:49:18.906Z,4.36
2023-04-07T04:51:22.297Z,4.28
2023-04-07T04:53:29.111Z,4.30
2023-04-07T04:55:34.072Z,4.57
2023-04-07T04:57:36.116Z,4.66
2023-04-07T04:59:42.406Z,4.84
2023-04-07T05:01:44.187Z,4.45
2023-04-07T05:03:49.877Z,4.58
2023-04-07T05:05:58.780Z,4.33
2023-04-07T05:08:01.068Z,4.44
2023-04-07T05:10:08.935Z,4.60
2023-04-07T05:12:14.167Z,4.86
2023-04-07T05:14:21.744Z,4.83
2023-04-07T05:16:29.550Z,4.77
2023-04-07T05:18:31.404Z,4.84
2023-04-07T05:20:33.916Z,4.70
2023-04-07T05:22:36.340Z,4.77
2023-04-07T05:24:39.363Z,4.89
2023-04-07T05:26:40.962Z,5.00
2023-04-07T05:28:43.489Z,5.02
2023-04-07T05:30:51.021Z,4.54
2023-04-07T05:32:53.631Z,4.52
2023-04-07T05:35:15.746Z,4.68
2023-04-07T05:37:24.707Z,4.86
2023-04-07T05:39:27.030Z,5.00
2023-04-07T05:41:30.541Z,4.88
2023-04-07T05:43:32.230Z,5.07
2023-04-07T05:45:34.004Z,4.97
2023-04-07T05:47:35.936Z,5.07
2023-04-07T05:49:37.734Z,5.07
2023-04-07T05:51:42.710Z,5.20
2023-04-07T05:53:47.508Z,5.09
2023-04-07T05:55:49.628Z,5.14
2023-04-07T05:58:00.182Z,5.18
2023-04-07T06:00:05.370Z,5.31
2023-04-07T06:02:16.030Z,5.34
2023-04-07T06:04:20.512Z,5.09
2023-04-07T06:06:24.650Z,4.78
2023-04-07T06:08:26.160Z,4.60
2023-04-07T06:10:27.864Z,4.80
2023-04-07T06:12:29.380Z,4.98
2023-04-07T06:14:31.315Z,5.10
2023-04-07T06:16:32.830Z,5.09
2023-04-07T06:18:34.503Z,4.98
2023-04-07T06:20:36.257Z,4.82
2023-04-07T06:22:40.135Z,4.98
2023-04-07T06:24:42.717Z,5.16
2023-04-07T06:26:44.956Z,5.06
2023-04-07T06:28:46.660Z,5.12
2023-04-07T06:30:49.173Z,4.97
2023-04-07T06:32:51.364Z,5.07
2023-04-07T06:34:52.963Z,5.22
2023-04-07T06:36:57.997Z,5.32
2023-04-07T06:39:00.290Z,5.19
2023-04-07T06:41:01.806Z,5.27
2023-04-07T06:43:04.052Z,5.39
2023-04-07T06:45:14.700Z,5.24
2023-04-07T06:47:16.713Z,5.21
2023-04-07T06:49:18.767Z,5.28
2023-04-07T06:51:20.272Z,5.31
2023-04-07T06:53:21.822Z,5.36
2023-04-07T06:55:23.409Z,5.24
2023-04-07T06:57:25.501Z,5.27
2023-04-07T06:59:27.009Z,5.25
2023-04-07T07:01:28.730Z,5.27
2023-04-07T07:03:31.619Z,5.29
2023-04-07T07:05:33.251Z,5.05
2023-04-07T07:07:35.076Z,5.21
2023-04-07T07:09:36.720Z,5.22
2023-04-07T07:11:38.373Z,5.20
2023-04-07T07:13:39.852Z,5.24
2023-04-07T07:15:41.409Z,5.07
2023-04-07T07:17:43.003Z,5.17
2023-04-07T07:19:44.461Z,5.30
2023-04-07T07:21:45.977Z,5.38
2023-04-07T07:23:47.645Z,5.43
2023-04-07T07:25:49.204Z,5.23
2023-04-07T07:27:53.314Z,5.01
2023-04-07T07:29:54.884Z,5.08
2023-04-07T07:31:56.499Z,5.23
2023-04-07T07:33:58.027Z,5.31
2023-04-07T07:35:59.639Z,5.39
2023-04-07T07:38:01.348Z,5.26
2023-04-07T07:40:02.992Z,5.39
2023-04-07T07:42:04.568Z,5.56
2023-04-07T07:44:06.156Z,5.67
2023-04-07T07:46:07.777Z,5.66
2023-04-07T07:48:09.247Z,5.71
2023-04-07T07:50:11.158Z,5.63
2023-04-07T07:52:12.670Z,5.57
2023-04-07T07:54:14.178Z,5.34
2023-04-07T07:56:15.924Z,5.51
2023-04-07T07:58:17.478Z,5.49
2023-04-07T08:00:19.150Z,5.63
2023-04-07T08:02:20.709Z,5.63
2023-04-07T08:04:23.393Z,5.79
2023-04-07T08:06:25.220Z,5.72
2023-04-07T08:08:26.814Z,5.73
2023-04-07T08:10:28.594Z,5.87
2023-04-07T08:12:30.130Z,5.90
2023-04-07T08:14:31.638Z,5.86
2023-04-07T08:16:33.258Z,6.12
2023-04-07T08:18:34.880Z,6.09
2023-04-07T08:20:36.723Z,6.37
2023-04-07T08:22:38.196Z,6.27
2023-04-07T08:24:39.741Z,6.22
2023-04-07T08:26:41.262Z,6.07
2023-04-07T08:28:42.780Z,5.73
2023-04-07T08:30:44.336Z,5.78
2023-04-07T08:32:45.974Z,5.97
2023-04-07T08:34:47.505Z,5.96
2023-04-07T08:36:49.100Z,5.97
2023-04-07T08:38:50.796Z,5.81
2023-04-07T08:41:00.696Z,5.32
2023-04-07T08:43:09.509Z,5.27
2023-04-07T08:45:12.688Z,5.31
2023-04-07T08:47:17.223Z,5.35
2023-04-07T08:49:19.849Z,5.45
2023-04-07T08:51:29.692Z,5.60
2023-04-07T08:53:41.432Z,5.81
2023-04-07T08:55:42.994Z,5.76
2023-04-07T08:57:44.710Z,5.93
2023-04-07T08:59:48.999Z,6.12
2023-04-07T09:01:51.717Z,6.19
2023-04-07T09:03:53.346Z,6.31
2023-04-07T09:05:56.663Z,6.40
2023-04-07T09:07:58.136Z,6.28
2023-04-07T09:10:00.243Z,6.15
2023-04-07T09:12:01.881Z,6.26
2023-04-07T09:14:03.582Z,6.20
2023-04-07T09:16:05.470Z,6.34
2023-04-07T09:18:07.231Z,6.17
2023-04-07T09:20:09.363Z,5.95
2023-04-07T09:22:14.122Z,6.08
2023-04-07T09:24:23.866Z,6.20
2023-04-07T09:26:28.193Z,6.13
2023-04-07T09:28:42.264Z,6.23
2023-04-07T09:30:54.265Z,5.98
2023-04-07T09:32:56.535Z,6.19
2023-04-07T09:34:59.280Z,6.13
2023-04-07T09:37:01.266Z,6.14
2023-04-07T09:39:08.580Z,6.15
2023-04-07T09:41:16.277Z,6.31
2023-04-07T09:43:19.412Z,6.33
2023-04-07T09:45:33.835Z,6.17
2023-04-07T09:47:38.187Z,6.41
2023-04-07T09:49:53.973Z,6.59
2023-04-07T09:52:11.040Z,6.60
2023-04-07T09:54:12.840Z,6.64
2023-04-07T09:56:19.834Z,6.39
2023-04-07T09:58:21.800Z,6.52
2023-04-07T10:00:24.912Z,6.61
2023-04-07T10:02:26.814Z,6.71
2023-04-07T10:04:31.359Z,6.85
2023-04-07T10:06:33.159Z,7.00
2023-04-07T10:08:37.449Z,6.70
2023-04-07T10:10:42.770Z,6.80
2023-04-07T10:12:45.512Z,6.82
2023-04-07T10:14:48.315Z,7.02
2023-04-07T10:16:51.802Z,7.00
2023-04-07T10:18:53.860Z,7.12
2023-04-07T10:20:56.200Z,7.05
2023-04-07T10:23:13.110Z,7.09
2023-04-07T10:25:18.249Z,6.74
2023-04-07T10:27:24.169Z,6.55
2023-04-07T10:29:27.193Z,6.70
2023-04-07T10:31:29.297Z,6.96
2023-04-07T10:33:51.757Z,6.65
2023-04-07T10:36:07.177Z,6.73
2023-04-07T10:38:10.715Z,6.79
2023-04-07T10:40:18.495Z,7.13
2023-04-07T10:42:41.229Z,7.19
2023-04-07T10:44:42.870Z,7.10
2023-04-07T10:46:48.535Z,7.41
2023-04-07T10:49:10.094Z,7.79
2023-04-07T10:51:15.133Z,7.89
2023-04-07T10:53:17.468Z,7.79
2023-04-07T10:55:30.211Z,7.36
2023-04-07T10:57:31.772Z,7.29
2023-04-07T10:59:34.300Z,7.24
2023-04-07T11:01:36.251Z,7.37
2023-04-07T11:03:40.385Z,7.32
2023-04-07T11:05:42.904Z,7.51
2023-04-07T11:07:45.998Z,7.71
2023-04-07T11:09:47.500Z,7.79
2023-04-07T11:11:49.076Z,7.60
2023-04-07T11:13:51.561Z,7.87
2023-04-07T11:15:53.660Z,7.65
2023-04-07T11:18:08.946Z,7.82
2023-04-07T11:20:10.889Z,7.70
2023-04-07T11:22:29.405Z,7.45
2023-04-07T11:24:39.236Z,7.45
2023-04-07T11:26:41.556Z,7.44
2023-04-07T11:28:54.122Z,7.01
2023-04-07T11:30:58.077Z,7.00
2023-04-07T11:33:00.227Z,6.95
2023-04-07T11:35:06.755Z,6.98
2023-04-07T11:37:25.266Z,6.87
2023-04-07T11:39:33.433Z,7.11
2023-04-07T11:41:46.659Z,6.99
2023-04-07T11:43:50.816Z,7.11
2023-04-07T11:46:12.028Z,7.08
2023-04-07T11:48:29.443Z,6.91
2023-04-07T11:50:41.370Z,7.00
2023-04-07T11:52:49.494Z,6.57
2023-04-07T11:54:51.064Z,6.61
2023-04-07T11:56:55.421Z,6.87
2023-04-07T11:58:58.051Z,7.09
2023-04-07T12:01:03.470Z,7.46
2023-04-07T12:03:16.365Z,7.76
2023-04-07T12:05:18.147Z,7.83
2023-04-07T12:07:20.762Z,8.07
2023-04-07T12:09:30.868Z,8.21
2023-04-07T12:11:33.048Z,8.40
2023-04-07T12:13:36.045Z,8.33
2023-04-07T12:15:37.884Z,8.29
2023-04-07T12:17:45.784Z,8.23
2023-04-07T12:19:47.322Z,8.61
2023-04-07T12:21:48.867Z,8.87
2023-04-07T12:23:50.636Z,8.71
2023-04-07T12:25:52.424Z,8.63
2023-04-07T12:27:54.067Z,8.52
2023-04-07T12:29:55.579Z,8.30
2023-04-07T12:31:57.460Z,8.43
2023-04-07T12:33:59.397Z,8.81
2023-04-07T12:36:00.992Z,9.08
2023-04-07T12:38:02.953Z,9.48
2023-04-07T12:40:04.814Z,9.57
2023-04-07T12:42:07.518Z,9.49
2023-04-07T12:44:09.592Z,9.72
2023-04-07T12:46:11.554Z,9.71
2023-04-07T12:48:13.425Z,9.40
2023-04-07T12:50:14.984Z,9.39
2023-04-07T12:52:16.769Z,9.39
2023-04-07T12:54:18.654Z,10.29
2023-04-07T12:56:22.278Z,11.10
2023-04-07T12:58:25.289Z,11.60
2023-04-07T13:00:27.126Z,11.48
2023-04-07T13:02:28.757Z,11.79
2023-04-07T13:04:31.349Z,11.96
2023-04-07T13:06:33.462Z,12.02
2023-04-07T13:08:34.978Z,11.59
2023-04-07T13:10:36.825Z,10.80
2023-04-07T13:12:39.808Z,10.06
2023-04-07T13:14:52.829Z,10.02
2023-04-07T13:16:59.096Z,10.41
2023-04-07T13:19:00.761Z,10.46
2023-04-07T13:21:26.336Z,10.67
2023-04-07T13:23:26.363Z,10.96
2023-04-07T13:25:28.129Z,11.00
2023-04-07T13:27:29.770Z,11.14
2023-04-07T13:29:32.018Z,10.97
2023-04-07T13:31:33.622Z,11.18
2023-04-07T13:33:35.392Z,11.16
2023-04-07T13:35:37.125Z,11.08
2023-04-07T13:37:38.697Z,11.10
2023-04-07T13:39:40.362Z,11.05
2023-04-07T13:41:41.987Z,10.96
2023-04-07T13:43:43.564Z,11.02
2023-04-07T13:45:45.451Z,10.99
2023-04-07T13:47:47.453Z,9.97
2023-04-07T13:49:49.325Z,10.26
2023-04-07T13:51:51.278Z,10.12
2023-04-07T13:53:52.888Z,9.82
2023-04-07T13:55:54.478Z,9.95
2023-04-07T13:57:56.065Z,10.12
2023-04-07T13:59:57.827Z,10.41
2023-04-07T14:01:59.638Z,10.66
2023-04-07T14:04:02.758Z,10.86
2023-04-07T14:06:04.455Z,10.86
2023-04-07T14:08:06.050Z,10.97
2023-04-07T14:10:09.477Z,11.18
2023-04-07T14:12:12.416Z,10.60
2023-04-07T14:14:14.102Z,10.72
2023-04-07T14:16:16.636Z,10.94
2023-04-07T14:18:18.316Z,10.72
2023-04-07T14:20:19.960Z,10.88
2023-04-07T14:22:21.597Z,10.96
2023-04-07T14:24:23.191Z,10.95
2023-04-07T14:26:24.818Z,11.15
2023-04-07T14:28:27.787Z,11.08
2023-04-07T14:30:30.808Z,10.81
2023-04-07T14:32:34.143Z,10.85
2023-04-07T14:34:35.762Z,11.02
2023-04-07T14:36:37.592Z,11.36
2023-04-07T14:38:39.352Z,11.46
2023-04-07T14:40:41.444Z,11.46
2023-04-07T14:42:43.029Z,11.59
2023-04-07T14:44:44.668Z,11.82
2023-04-07T14:46:46.574Z,11.84
2023-04-07T14:48:48.205Z,11.80
2023-04-07T14:50:56.408Z,11.43
2023-04-07T14:53:04.568Z,11.33
2023-04-07T14:55:06.820Z,11.00
2023-04-07T14:57:08.590Z,10.97
2023-04-07T14:59:10.246Z,10.54
2023-04-07T15:01:11.831Z,10.44
2023-04-07T15:03:14.063Z,10.34
2023-04-07T15:05:15.936Z,10.38
2023-04-07T15:07:17.756Z,10.52
2023-04-07T15:09:19.366Z,10.52
2023-04-07T15:11:21.742Z,10.90
2023-04-07T15:13:23.534Z,11.26
2023-04-07T15:15:25.628Z,11.19
2023-04-07T15:17:40.218Z,11.00
2023-04-07T15:19:45.500Z,10.96
2023-04-07T15:21:47.216Z,10.96
2023-04-07T15:23:49.022Z,10.66
2023-04-07T15:25:55.945Z,10.70
2023-04-07T15:27:57.619Z,10.46
2023-04-07T15:29:59.297Z,10.37
2023-04-07T15:32:01.156Z,10.38
2023-04-07T15:34:02.839Z,10.37
2023-04-07T15:36:05.910Z,10.26
2023-04-07T15:38:07.570Z,10.03
2023-04-07T15:40:09.475Z,10.13
2023-04-07T15:42:12.439Z,10.24
2023-04-07T15:44:18.648Z,10.29
2023-04-07T15:46:20.315Z,10.32
2023-04-07T15:48:21.935Z,10.17
2023-04-07T15:50:24.825Z,9.91
2023-04-07T15:52:27.586Z,9.90
2023-04-07T15:54:30.184Z,10.31
2023-04-07T15:56:31.985Z,10.28
2023-04-07T15:58:33.633Z,10.29
2023-04-07T16:00:35.757Z,10.17
2023-04-07T16:02:38.214Z,11.22
2023-04-07T16:04:41.435Z,10.88
2023-04-07T16:06:43.021Z,10.61
2023-04-07T16:08:44.685Z,10.34
2023-04-07T16:10:46.401Z,10.24
2023-04-07T16:12:48.132Z,10.07
2023-04-07T16:14:50.280Z,9.98
2023-04-07T16:16:54.370Z,9.90
2023-04-07T16:18:56.015Z,9.85
2023-04-07T16:20:57.649Z,9.84
2023-04-07T16:22:59.261Z,9.84
2023-04-07T16:25:01.174Z,9.84
2023-04-07T16:27:04.297Z,9.94
2023-04-07T16:29:06.179Z,9.95
2023-04-07T16:31:08.562Z,9.82
2023-04-07T16:33:10.514Z,9.78
2023-04-07T16:35:14.769Z,9.80
2023-04-07T16:37:16.430Z,9.79
2023-04-07T16:39:18.236Z,9.67
2023-04-07T16:41:20.234Z,9.61
2023-04-07T16:43:21.851Z,9.58
2023-04-07T16:45:23.610Z,9.57
2023-04-07T16:47:26.100Z,9.61
2023-04-07T16:49:27.612Z,9.47
2023-04-07T16:51:29.608Z,9.41
2023-04-07T16:53:31.225Z,9.34
2023-04-07T16:55:36.107Z,9.30
2023-04-07T16:57:38.005Z,9.24
2023-04-07T16:59:40.396Z,9.22
2023-04-07T17:01:43.132Z,9.21
2023-04-07T17:03:48.234Z,9.29
2023-04-07T17:05:50.898Z,9.28
2023-04-07T17:07:52.703Z,9.25
2023-04-07T17:09:54.261Z,9.28
2023-04-07T17:11:56.369Z,9.36
2023-04-07T17:13:57.987Z,9.43
2023-04-07T17:16:02.863Z,9.34
2023-04-07T17:18:04.527Z,9.21
2023-04-07T17:20:06.745Z,9.13
2023-04-07T17:22:08.385Z,9.27
2023-04-07T17:24:10.164Z,9.37
2023-04-07T17:26:11.756Z,9.28
2023-04-07T17:28:13.379Z,9.22
2023-04-07T17:30:15.129Z,9.16
2023-04-07T17:32:16.697Z,9.40
2023-04-07T17:34:18.370Z,9.37
2023-04-07T17:36:20.165Z,9.19
2023-04-07T17:38:21.771Z,9.23
2023-04-07T17:40:23.466Z,9.09
2023-04-07T17:42:25.147Z,8.95
2023-04-07T17:44:27.141Z,8.87
2023-04-07T17:46:29.336Z,9.03
2023-04-07T17:48:32.105Z,9.18
2023-04-07T17:50:34.063Z,9.15
2023-04-07T17:52:36.096Z,9.14
2023-04-07T17:54:38.124Z,9.26
2023-04-07T17:56:39.896Z,9.29
2023-04-07T17:58:41.710Z,9.25
2023-04-07T18:00:43.390Z,9.23
2023-04-07T18:02:45.542Z,9.32
2023-04-07T18:04:47.641Z,9.27
2023-04-07T18:06:49.934Z,9.32
2023-04-07T18:08:51.590Z,9.29
2023-04-07T18:10:53.203Z,9.28
2023-04-07T18:12:54.991Z,9.16
2023-04-07T18:14:56.629Z,9.11
2023-04-07T18:16:58.352Z,9.02
2023-04-07T18:19:00.691Z,8.86
2023-04-07T18:21:02.577Z,8.81
2023-04-07T18:23:05.288Z,8.68
2023-04-07T18:25:07.222Z,8.63
2023-04-07T18:27:10.083Z,8.77
2023-04-07T18:29:14.536Z,8.78
2023-04-07T18:31:16.297Z,8.68
2023-04-07T18:33:17.994Z,8.48
2023-04-07T18:35:19.669Z,8.50
2023-04-07T18:37:22.075Z,8.50
2023-04-07T18:39:27.739Z,8.57
2023-04-07T18:41:29.491Z,8.56
2023-04-07T18:43:31.279Z,8.44
2023-04-07T18:45:36.726Z,8.41
2023-04-07T18:47:38.914Z,8.55
2023-04-07T18:49:40.632Z,8.64
2023-04-07T18:51:44.479Z,8.81
2023-04-07T18:53:46.251Z,8.88
2023-04-07T18:55:49.109Z,8.80
2023-04-07T18:57:50.680Z,8.84
2023-04-07T18:59:52.784Z,8.64
2023-04-07T19:01:55.499Z,8.30
2023-04-07T19:03:57.586Z,8.09
2023-04-07T19:06:02.842Z,8.18
2023-04-07T19:08:05.450Z,8.25
2023-04-07T19:10:07.752Z,8.35
2023-04-07T19:12:09.404Z,8.49
2023-04-07T19:14:11.180Z,8.60
2023-04-07T19:16:12.794Z,8.53
2023-04-07T19:18:14.520Z,8.60
2023-04-07T19:20:16.193Z,8.64
2023-04-07T19:22:17.877Z,8.64
2023-04-07T19:24:19.603Z,8.55
2023-04-07T19:26:21.641Z,8.45
2023-04-07T19:28:23.290Z,8.42
2023-04-07T19:30:24.896Z,8.03
2023-04-07T19:32:27.249Z,7.91
2023-04-07T19:34:28.954Z,7.77
2023-04-07T19:36:31.097Z,7.75
2023-04-07T19:38:32.736Z,7.75
2023-04-07T19:40:35.986Z,7.72
2023-04-07T19:42:39.327Z,7.55
2023-04-07T19:44:41.416Z,7.43
2023-04-07T19:46:43.054Z,7.46
2023-04-07T19:49:03.368Z,7.46
2023-04-07T19:51:07.101Z,7.45
2023-04-07T19:53:15.719Z,7.47
2023-04-07T19:55:17.288Z,7.60
2023-04-07T19:57:18.776Z,7.60
2023-04-07T19:59:20.585Z,7.33
2023-04-07T20:01:22.176Z,7.08
2023-04-07T20:03:24.001Z,7.24
2023-04-07T20:05:26.064Z,7.34
2023-04-07T20:07:27.685Z,7.37
2023-04-07T20:09:29.274Z,7.16
2023-04-07T20:11:30.726Z,7.19
2023-04-07T20:13:34.812Z,7.09
2023-04-07T20:15:36.687Z,7.13
2023-04-07T20:17:38.319Z,7.05
2023-04-07T20:19:41.084Z,6.88
2023-04-07T20:21:42.658Z,6.50
2023-04-07T20:23:44.181Z,6.49
2023-04-07T20:25:45.684Z,6.44
2023-04-07T20:27:49.054Z,6.34
2023-04-07T20:29:51.582Z,6.49
2023-04-07T20:31:53.677Z,6.52
2023-04-07T20:33:55.245Z,6.49
2023-04-07T20:35:56.810Z,6.45
2023-04-07T20:37:59.989Z,6.42
2023-04-07T20:40:01.574Z,6.63
2023-04-07T20:42:03.403Z,6.73
2023-04-07T20:44:05.433Z,6.82
2023-04-07T20:46:07.276Z,6.75
2023-04-07T20:48:08.811Z,6.55
2023-04-07T20:50:10.429Z,6.46
2023-04-07T20:52:12.377Z,6.56
2023-04-07T20:54:13.891Z,6.31
2023-04-07T20:56:15.484Z,6.40
2023-04-07T20:58:18.358Z,6.10
2023-04-07T21:00:20.375Z,5.92
2023-04-07T21:02:21.992Z,5.90
2023-04-07T21:04:24.444Z,5.89
2023-04-07T21:06:26.433Z,5.59
2023-04-07T21:08:27.998Z,5.84
2023-04-07T21:10:29.543Z,5.69
2023-04-07T21:12:31.183Z,5.30
2023-04-07T21:14:32.822Z,5.42
2023-04-07T21:16:34.356Z,5.28
2023-04-07T21:18:36.624Z,5.22
2023-04-07T21:20:38.188Z,5.25
2023-04-07T21:22:39.748Z,5.08
2023-04-07T21:24:41.392Z,4.89
2023-04-07T21:26:42.914Z,4.96
2023-04-07T21:28:44.403Z,5.16
2023-04-07T21:30:46.145Z,5.18
2023-04-07T21:32:47.778Z,4.90
2023-04-07T21:34:52.496Z,4.90
2023-04-07T21:36:53.974Z,4.60
2023-04-07T21:38:55.504Z,4.53
2023-04-07T21:40:57.486Z,4.57
2023-04-07T21:42:59.040Z,4.49
2023-04-07T21:45:00.690Z,4.49
2023-04-07T21:47:02.417Z,4.49
2023-04-07T21:49:04.506Z,4.47
2023-04-07T21:51:06.344Z,4.62
2023-04-07T21:53:09.373Z,4.51
2023-04-07T21:55:11.232Z,4.61
2023-04-07T21:57:13.433Z,4.57
2023-04-07T21:59:17.158Z,4.62
2023-04-07T22:01:18.852Z,4.46
2023-04-07T22:03:20.511Z,4.53
2023-04-07T22:05:22.164Z,4.30
2023-04-07T22:07:24.333Z,4.21
2023-04-07T22:09:26.300Z,4.14
2023-04-07T22:11:27.862Z,4.21
2023-04-07T22:13:29.417Z,4.34
2023-04-07T22:15:31.024Z,4.25
2023-04-07T22:17:32.565Z,4.09
2023-04-07T22:19:34.105Z,3.88
2023-04-07T22:21:35.863Z,3.86
2023-04-07T22:23:37.630Z,3.80
2023-04-07T22:25:39.244Z,3.76
2023-04-07T22:27:40.752Z,3.73
2023-04-07T22:29:42.226Z,3.79
2023-04-07T22:31:43.755Z,3.94
2023-04-07T22:33:45.328Z,3.91
2023-04-07T22:35:46.922Z,3.66
2023-04-07T22:37:48.508Z,3.54
2023-04-07T22:39:50.272Z,3.70
2023-04-07T22:41:51.788Z,3.50
2023-04-07T22:43:53.323Z,3.45
2023-04-07T22:45:54.816Z,3.54
2023-04-07T22:47:56.365Z,3.48
2023-04-07T22:49:58.168Z,3.57
2023-04-07T22:51:59.960Z,3.59
2023-04-07T22:54:01.438Z,3.61
2023-04-07T22:56:03.215Z,3.49
2023-04-07T22:58:04.705Z,3.66
2023-04-07T23:00:07.038Z,3.44
2023-04-07T23:02:08.698Z,3.47
2023-04-07T23:04:10.750Z,3.47
2023-04-07T23:06:12.221Z,3.48
2023-04-07T23:08:13.929Z,3.50
2023-04-07T23:10:15.562Z,3.58
2023-04-07T23:12:17.058Z,3.57
2023-04-07T23:14:18.685Z,3.62
2023-04-07T23:16:20.399Z,3.39
2023-04-07T23:18:21.925Z,3.51
2023-04-07T23:20:23.443Z,3.32
2023-04-07T23:22:24.987Z,3.28
2023-04-07T23:24:26.486Z,3.34
2023-04-07T23:26:27.988Z,3.23
2023-04-07T23:28:29.522Z,3.15
2023-04-07T23:30:31.140Z,3.15
2023-04-07T23:32:32.660Z,3.12
2023-04-07T23:34:34.185Z,3.13
2023-04-07T23:36:35.737Z,2.98
2023-04-07T23:38:39.380Z,2.84
2023-04-07T23:40:41.320Z,2.83
2023-04-07T23:42:42.856Z,2.77
2023-04-07T23:44:44.584Z,3.00
2023-04-07T23:46:46.071Z,3.07
2023-04-07T23:48:47.620Z,2.86
2023-04-07T23:50:50.557Z,2.79
2023-04-07T23:52:51.980Z,2.87
2023-04-07T23:54:53.688Z,2.77
2023-04-07T23:56:55.196Z,2.88
2023-04-07T23:58:56.672Z,2.88
